Lowest pressure

Not for real navigation. The accuracy of this data is not assured See disclaimer for more information



ICAO NAME COUNTRY WIND Kt GUST Kt VIS m TEMP/DEW C BARO METAR
NZSP Amundsen-Scott South Pole Stat Antarctica 6 0 9999 -37/0 28.51 NZSP 181650Z 06006KT 9999 SCT030 SCT080 BKN130 M37/ A2851 RMK CLN AIR 07005KT ALL WNDS GRID SDG/HDG
NZWD Williams Field, Antarctic New Zealand 6 0 9999 -6/-11 28.82 NZWD 181655Z 28006KT 9999 FEW020 BKN060 BKN090 BKN140 M06/M11 A2882 RMK SCSL GRID N ACSL GRID NE SLP
NZFX 8 0 9999 -6/-12 28.83 NZFX 181617Z 32008KT 9999 -SN BKN035 BKN050 BKN090 M06/M12 A2883 RMK SCSL GRID N ACSL GRID NE GRID13
SCRM 4 0 9999 0/-1 28.97 SCRM 181600Z 26004KT 9999 BKN015 SCT200 M00/M01 Q0981
SAWE Rio Grande B. A. Argentina 27 37 9999 9/0 29.15 SAWE 181700Z 23027G37KT 9999 BKN018 09/00 Q0987

Show more